Terminal Aerodrome Forecast
Issued by NWS

Home | Current Version | Previous Version | Text Only | Print | Product List | Glossary On
Versions: 1 2 3 4 5 6 7 8 9 10 11 12 13 14 15 16 17 18 19 20 21 22 23 24 25 26 27
000
FTUS46 KPQR 011120
TAFONP
TAF
KONP 011120Z 0112/0212 19013G23KT 6SM -SHRA SCT010 BKN020
     FM011700 19017G28KT 6SM -SHRA BKN020 OVC030
     FM020100 19008KT 6SM -SHRA BKN015 OVC040
     FM020800 16007KT 2SM -SHRA BR OVC007=

USA.gov is the U.S. government's official web portal to all federal, state and local government web resources and services.